Time;durP1;ratioP1;P1;durP2;ratioP2;P2;SDS_P1;SDS_P2;PMS_P1;PMS_P2;Temp;Humidity;BMP_temperature;BMP_pressure;BME280_temperature;BME280_humidity;BME280_pressure;Samples;Min_cycle;Max_cycle;Signal;HPM_P1;HPM_P2
2021/06/19 00:00:29;;;;;;;13.17;7.00;;;23.60;99.90;;;;;;5037886;28;20428;-77
2021/06/19 00:02:55;;;;;;;9.73;6.30;;;23.50;99.90;;;;;;5040562;28;20445;-76
2021/06/19 00:05:20;;;;;;;13.10;7.07;;;23.50;99.90;;;;;;5037748;28;20422;-77
2021/06/19 00:07:46;;;;;;;9.70;7.83;;;23.50;99.90;;;;;;5038165;28;20175;-76
2021/06/19 00:10:13;;;;;;;10.87;7.47;;;23.40;99.90;;;;;;5038703;28;20632;-76
2021/06/19 00:12:39;;;;;;;10.17;8.00;;;23.40;99.90;;;;;;5043023;28;20250;-76
2021/06/19 00:15:09;;;;;;;11.70;6.80;;;23.30;99.90;;;;;;5044454;28;20444;-78
2021/06/19 00:17:35;;;;;;;8.50;7.63;;;23.30;99.90;;;;;;5040776;28;20205;-76
2021/06/19 00:20:01;;;;;;;7.77;6.70;;;23.30;99.90;;;;;;5038883;28;20421;-77
2021/06/19 00:22:27;;;;;;;8.63;7.73;;;23.30;99.90;;;;;;5024158;28;20547;-74
2021/06/19 00:24:52;;;;;;;9.30;7.93;;;23.30;99.90;;;;;;5039921;28;20496;-76
2021/06/19 00:27:18;;;;;;;9.60;8.60;;;23.30;99.90;;;;;;5040590;28;20186;-76
2021/06/19 00:29:44;;;;;;;11.90;7.43;;;23.20;99.90;;;;;;5044570;28;20183;-76
2021/06/19 00:32:09;;;;;;;12.83;7.57;;;23.20;99.90;;;;;;5041782;28;20266;-74
2021/06/19 00:34:35;;;;;;;10.00;8.20;;;23.20;99.90;;;;;;5038346;28;20186;-76
2021/06/19 00:37:00;;;;;;;10.70;8.47;;;23.20;99.90;;;;;;5031813;28;20194;-76
2021/06/19 00:39:26;;;;;;;11.07;7.97;;;23.20;99.90;;;;;;5041408;28;20190;-77
2021/06/19 00:41:52;;;;;;;9.90;7.20;;;23.20;99.90;;;;;;5035121;28;20207;-76
2021/06/19 00:44:21;;;;;;;9.47;7.80;;;23.20;99.90;;;;;;5043480;28;20690;-76
2021/06/19 00:46:54;;;;;;;14.30;8.73;;;23.10;99.90;;;;;;5036262;28;20571;-77
2021/06/19 00:49:20;;;;;;;9.73;8.07;;;23.20;99.90;;;;;;5039717;28;20497;-76
2021/06/19 00:51:46;;;;;;;8.07;6.87;;;23.10;99.90;;;;;;5038036;28;20430;-74
2021/06/19 00:54:11;;;;;;;12.20;7.40;;;23.00;99.90;;;;;;5038790;28;20528;-76
2021/06/19 00:56:38;;;;;;;8.40;7.47;;;23.00;99.90;;;;;;5040522;28;20210;-77
2021/06/19 00:59:05;;;;;;;10.60;7.70;;;23.00;99.90;;;;;;5036498;28;20187;-75
2021/06/19 01:01:31;;;;;;;13.00;8.70;;;23.10;99.90;;;;;;5043023;28;20564;-76
2021/06/19 01:03:57;;;;;;;9.07;8.17;;;23.10;99.90;;;;;;5037836;28;20730;-76
2021/06/19 01:06:23;;;;;;;9.60;8.00;;;23.00;99.90;;;;;;5034916;28;20519;-76
2021/06/19 01:08:48;;;;;;;9.87;7.87;;;22.90;99.90;;;;;;5036015;28;20646;-76
2021/06/19 01:11:14;;;;;;;9.03;8.23;;;22.90;99.90;;;;;;5023490;28;20167;-77
2021/06/19 01:13:39;;;;;;;9.10;8.20;;;22.90;99.90;;;;;;5039576;28;20294;-76
2021/06/19 01:16:05;;;;;;;10.53;7.80;;;22.80;99.90;;;;;;5036438;28;20185;-76
2021/06/19 01:18:31;;;;;;;11.53;8.40;;;22.70;99.90;;;;;;5040938;28;20191;-75
2021/06/19 01:20:56;;;;;;;9.93;8.90;;;22.60;99.90;;;;;;5035471;28;20179;-77
2021/06/19 01:23:22;;;;;;;8.97;8.07;;;22.60;99.90;;;;;;5023613;28;20214;-76
2021/06/19 01:25:47;;;;;;;8.83;8.13;;;22.60;99.90;;;;;;5035201;28;20183;-76
2021/06/19 01:28:13;;;;;;;11.80;9.17;;;22.60;99.90;;;;;;5035904;28;20269;-76
2021/06/19 01:30:39;;;;;;;10.57;8.33;;;22.60;99.90;;;;;;5039187;28;20659;-76
2021/06/19 01:33:08;;;;;;;10.23;7.07;;;22.60;99.90;;;;;;5031310;28;20192;-76
2021/06/19 01:35:35;;;;;;;10.53;9.10;;;22.60;99.90;;;;;;5036161;28;20240;-76
2021/06/19 01:38:01;;;;;;;9.57;8.63;;;22.60;99.90;;;;;;5034976;28;20435;-76
2021/06/19 01:40:29;;;;;;;14.23;8.70;;;22.60;99.90;;;;;;5037192;28;20921;-76
2021/06/19 01:42:55;;;;;;;11.20;8.90;;;22.70;99.90;;;;;;5038803;28;20233;-76
2021/06/19 01:45:27;;;;;;;8.90;8.00;;;22.80;99.90;;;;;;5037124;28;20909;-76
2021/06/19 01:47:53;;;;;;;12.17;9.50;;;22.80;99.90;;;;;;5038878;28;20434;-76
2021/06/19 01:50:21;;;;;;;10.00;9.00;;;22.90;99.90;;;;;;5034101;28;20423;-76
2021/06/19 01:52:48;;;;;;;13.90;8.73;;;23.00;99.90;;;;;;5039104;28;20965;-76
2021/06/19 01:55:14;;;;;;;11.10;9.13;;;22.90;99.90;;;;;;5034944;28;20437;-76
2021/06/19 01:57:40;;;;;;;9.70;8.90;;;23.00;99.90;;;;;;5039047;28;20868;-76
2021/06/19 02:00:08;;;;;;;9.73;8.87;;;23.00;99.90;;;;;;5030198;28;20657;-75
2021/06/19 02:02:34;;;;;;;10.03;9.13;;;23.10;99.90;;;;;;5038548;28;20442;-76
2021/06/19 02:05:00;;;;;;;12.10;8.70;;;23.10;99.90;;;;;;5037408;28;20460;-77
2021/06/19 02:07:26;;;;;;;9.43;8.63;;;23.10;99.90;;;;;;5034750;28;20178;-76
2021/06/19 02:09:51;;;;;;;10.03;8.90;;;23.10;99.90;;;;;;5038668;28;20197;-76
2021/06/19 02:12:17;;;;;;;8.97;8.10;;;23.20;99.90;;;;;;5034844;28;20250;-76
2021/06/19 02:14:44;;;;;;;9.10;8.20;;;23.20;99.90;;;;;;5038946;28;20194;-76
2021/06/19 02:17:10;;;;;;;10.00;8.60;;;23.20;99.90;;;;;;5030650;28;20444;-76
2021/06/19 02:19:36;;;;;;;9.70;8.23;;;23.30;99.90;;;;;;5037039;28;20429;-75
2021/06/19 02:22:02;;;;;;;9.57;8.70;;;23.20;99.90;;;;;;5026264;28;20521;-77
2021/06/19 02:24:27;;;;;;;10.93;9.93;;;23.30;99.90;;;;;;5034582;28;20290;-75
2021/06/19 02:27:09;;;;;;;10.07;9.10;;;23.30;99.90;;;;;;5037115;28;20579;-75
2021/06/19 02:29:35;;;;;;;10.83;9.67;;;23.20;99.90;;;;;;5030268;28;20262;-76
2021/06/19 02:32:02;;;;;;;11.03;9.30;;;23.20;99.90;;;;;;5037981;28;20523;-74
2021/06/19 02:34:28;;;;;;;10.97;9.80;;;23.10;99.90;;;;;;5035987;28;20181;-74
2021/06/19 02:36:53;;;;;;;11.67;10.20;;;23.00;99.90;;;;;;5030542;28;20949;-75
2021/06/19 02:39:19;;;;;;;11.97;10.57;;;23.00;99.90;;;;;;5039954;28;20781;-75
2021/06/19 02:41:44;;;;;;;12.13;10.20;;;22.90;99.90;;;;;;5034785;28;20230;-74
2021/06/19 02:44:10;;;;;;;10.93;9.80;;;22.90;99.90;;;;;;5040860;28;20214;-75
2021/06/19 02:46:35;;;;;;;10.87;9.87;;;22.90;99.90;;;;;;5034860;28;20667;-75
2021/06/19 02:49:01;;;;;;;12.27;9.83;;;22.70;99.90;;;;;;5033625;28;20187;-75
2021/06/19 02:51:27;;;;;;;11.47;10.43;;;22.70;99.90;;;;;;5033696;28;20569;-74
2021/06/19 02:53:52;;;;;;;10.93;9.93;;;22.70;99.90;;;;;;5035163;28;20201;-74
2021/06/19 02:56:18;;;;;;;10.80;9.67;;;22.70;99.90;;;;;;5042098;28;20186;-74
2021/06/19 02:58:43;;;;;;;10.70;9.60;;;22.60;99.90;;;;;;5036728;28;20186;-74
2021/06/19 03:01:09;;;;;;;9.80;8.90;;;22.60;99.90;;;;;;5044265;28;20186;-75
2021/06/19 03:03:35;;;;;;;10.93;8.93;;;22.60;99.90;;;;;;5038369;28;20222;-74
2021/06/19 03:06:01;;;;;;;12.47;9.80;;;22.70;99.90;;;;;;5037327;28;20245;-74
2021/06/19 03:08:29;;;;;;;12.90;10.50;;;22.70;99.90;;;;;;5042109;28;20910;-77
2021/06/19 03:10:56;;;;;;;11.33;9.67;;;22.60;99.90;;;;;;5024931;28;20417;-74
2021/06/19 03:13:22;;;;;;;11.40;9.90;;;22.70;99.90;;;;;;5043504;28;20434;-74
2021/06/19 03:15:47;;;;;;;10.20;9.30;;;22.60;99.90;;;;;;5038596;28;20422;-75
2021/06/19 03:18:13;;;;;;;11.20;10.00;;;22.70;99.90;;;;;;5044149;28;20584;-75
2021/06/19 03:20:39;;;;;;;11.37;9.40;;;22.70;99.90;;;;;;5038306;28;20553;-76
2021/06/19 03:23:06;;;;;;;10.10;9.17;;;22.60;99.90;;;;;;5025410;28;20272;-75
2021/06/19 03:25:36;;;;;;;10.50;9.53;;;22.70;99.90;;;;;;5040066;28;20206;-75
2021/06/19 03:28:04;;;;;;;10.73;9.63;;;22.60;99.90;;;;;;5038585;28;20456;-75
2021/06/19 03:30:32;;;;;;;10.97;9.90;;;22.70;99.90;;;;;;5042804;28;20425;-75
2021/06/19 03:32:58;;;;;;;13.40;10.00;;;22.60;99.90;;;;;;5032865;28;20887;-74
2021/06/19 03:35:24;;;;;;;9.53;8.60;;;22.70;99.90;;;;;;5038271;28;20444;-75
2021/06/19 03:37:51;;;;;;;11.97;9.80;;;22.60;99.90;;;;;;5041512;28;20592;-75
2021/06/19 03:40:18;;;;;;;10.57;9.67;;;22.60;99.90;;;;;;5037666;28;20430;-74
2021/06/19 03:42:45;;;;;;;12.30;9.70;;;22.60;99.90;;;;;;5041111;28;20452;-75
2021/06/19 03:45:12;;;;;;;11.57;10.37;;;22.60;99.90;;;;;;5040852;28;20866;-75
2021/06/19 03:47:39;;;;;;;17.20;10.80;;;22.60;99.90;;;;;;5040885;28;20435;-75
2021/06/19 03:50:07;;;;;;;10.60;9.57;;;22.60;99.90;;;;;;5034797;28;20431;-75
2021/06/19 03:52:33;;;;;;;11.43;10.40;;;22.60;99.90;;;;;;5040143;28;21010;-75
2021/06/19 03:54:58;;;;;;;11.13;9.87;;;22.60;99.90;;;;;;5037955;28;20421;-75
2021/06/19 03:57:32;;;;;;;11.37;10.17;;;22.50;99.90;;;;;;5040501;28;20194;-75
2021/06/19 03:59:58;;;;;;;12.30;9.57;;;22.40;99.90;;;;;;5041859;28;20190;-75
2021/06/19 04:02:24;;;;;;;11.97;10.77;;;22.40;99.90;;;;;;5026833;28;20802;-75
2021/06/19 04:04:50;;;;;;;11.00;10.00;;;22.40;99.90;;;;;;5039063;28;20464;-75
2021/06/19 04:07:17;;;;;;;11.27;10.10;;;22.40;99.90;;;;;;5035378;28;20454;-75
2021/06/19 04:09:48;;;;;;;12.10;11.10;;;22.50;99.90;;;;;;5058914;28;20407;-76
2021/06/19 04:12:14;;;;;;;12.80;10.47;;;22.40;99.90;;;;;;5039945;28;20438;-75
2021/06/19 04:14:40;;;;;;;11.50;10.30;;;22.40;99.90;;;;;;5040342;28;20995;-75
2021/06/19 04:17:08;;;;;;;15.00;11.23;;;22.40;99.90;;;;;;5039456;28;20433;-77
2021/06/19 04:19:35;;;;;;;11.73;10.63;;;22.40;99.90;;;;;;5040127;28;20178;-75
2021/06/19 04:22:03;;;;;;;13.23;10.67;;;22.40;99.90;;;;;;5025417;28;20966;-74
2021/06/19 04:24:28;;;;;;;13.17;12.00;;;22.40;99.90;;;;;;5029001;28;20472;-75
2021/06/19 04:26:54;;;;;;;16.10;11.20;;;22.30;99.90;;;;;;5040413;28;20421;-74
2021/06/19 04:29:20;;;;;;;12.77;10.83;;;22.40;99.90;;;;;;5037930;28;20189;-74
2021/06/19 04:31:45;;;;;;;15.13;12.00;;;22.30;99.90;;;;;;5040741;28;20273;-76
2021/06/19 04:34:11;;;;;;;13.30;12.00;;;22.40;99.90;;;;;;5039326;28;20410;-75
2021/06/19 04:36:37;;;;;;;16.97;11.80;;;22.30;99.90;;;;;;5030172;28;20200;-75
2021/06/19 04:39:03;;;;;;;12.17;10.87;;;22.30;99.90;;;;;;5033638;28;20215;-75
2021/06/19 04:44:26;;;;;;;17.90;11.40;;;22.30;99.90;;;;;;5044992;28;21066;-75
2021/06/19 04:46:52;;;;;;;14.60;11.93;;;22.40;99.90;;;;;;5037364;28;20917;-75
2021/06/19 04:49:18;;;;;;;12.57;11.43;;;22.40;99.90;;;;;;5044646;28;20467;-77
2021/06/19 04:51:44;;;;;;;10.97;9.50;;;22.50;99.90;;;;;;5052243;28;20218;-76
2021/06/19 04:54:11;;;;;;;13.27;11.97;;;22.50;99.90;;;;;;5048807;28;20195;-79
2021/06/19 04:56:41;;;;;;;13.10;11.67;;;22.50;99.90;;;;;;5042755;28;20509;-75
2021/06/19 04:59:07;;;;;;;13.83;12.00;;;22.60;99.90;;;;;;5039667;28;20417;-75
2021/06/19 05:01:32;;;;;;;14.70;12.30;;;22.50;99.90;;;;;;5043315;28;20858;-78
2021/06/19 05:04:01;;;;;;;14.00;11.93;;;22.60;99.90;;;;;;5044410;28;20206;-75
2021/06/19 05:06:28;;;;;;;12.33;11.20;;;22.60;99.90;;;;;;5042562;28;20246;-78
2021/06/19 05:08:53;;;;;;;14.80;11.27;;;22.70;99.90;;;;;;5052841;28;20433;-77
2021/06/19 05:11:19;;;;;;;13.47;12.10;;;22.70;99.90;;;;;;5033715;28;20423;-75
2021/06/19 05:13:45;;;;;;;14.07;12.47;;;22.90;99.90;;;;;;5038947;28;20293;-76
2021/06/19 05:16:11;;;;;;;14.90;13.07;;;22.90;99.90;;;;;;5035853;28;20580;-77
2021/06/19 05:18:37;;;;;;;13.17;11.97;;;22.90;99.90;;;;;;5041329;28;20426;-75
2021/06/19 05:21:03;;;;;;;16.50;11.33;;;22.90;99.90;;;;;;5024777;28;20187;-76
2021/06/19 05:23:28;;;;;;;12.17;11.00;;;23.00;99.90;;;;;;5019265;28;20763;-76
2021/06/19 05:25:54;;;;;;;13.80;11.73;;;23.10;99.90;;;;;;5035987;28;20511;-75
2021/06/19 05:28:20;;;;;;;15.53;11.83;;;23.20;99.90;;;;;;5037131;28;20186;-74
2021/06/19 05:30:45;;;;;;;13.53;12.27;;;23.20;99.90;;;;;;5039524;28;20529;-75
2021/06/19 05:33:11;;;;;;;12.77;11.43;;;23.20;99.90;;;;;;5037732;28;20202;-75
2021/06/19 05:35:36;;;;;;;16.03;12.30;;;23.30;99.90;;;;;;5028134;28;20249;-76
2021/06/19 05:38:02;;;;;;;14.20;12.70;;;23.40;99.90;;;;;;5031394;28;20179;-75
2021/06/19 05:40:27;;;;;;;13.97;11.97;;;23.40;99.90;;;;;;5039582;28;20193;-75
2021/06/19 05:42:53;;;;;;;12.83;11.53;;;23.40;99.90;;;;;;5037991;28;20245;-77
2021/06/19 05:45:19;;;;;;;12.70;11.70;;;23.50;99.90;;;;;;5037639;28;20238;-77
2021/06/19 05:47:44;;;;;;;11.50;10.30;;;23.50;99.90;;;;;;5038212;28;20240;-76
2021/06/19 05:50:10;;;;;;;12.50;11.30;;;23.60;99.90;;;;;;5034671;28;20415;-76
2021/06/19 05:52:36;;;;;;;11.40;10.20;;;23.60;99.90;;;;;;5037843;28;20206;-76
2021/06/19 05:55:03;;;;;;;13.07;11.00;;;23.70;99.90;;;;;;5036222;28;20201;-76
2021/06/19 05:57:28;;;;;;;12.23;10.80;;;23.70;99.90;;;;;;5038844;28;20190;-76
2021/06/19 05:59:54;;;;;;;11.70;10.43;;;23.80;99.90;;;;;;5037763;28;20436;-76
2021/06/19 06:02:19;;;;;;;16.93;11.13;;;23.90;99.90;;;;;;5038770;28;20305;-76
2021/06/19 06:04:45;;;;;;;13.90;9.80;;;24.00;99.90;;;;;;5038905;28;20603;-76
2021/06/19 06:07:11;;;;;;;9.80;8.27;;;24.10;99.90;;;;;;5031518;28;20263;-76
2021/06/19 06:09:38;;;;;;;8.57;7.97;;;24.10;99.90;;;;;;5024328;28;20233;-75
2021/06/19 06:12:05;;;;;;;9.20;8.30;;;24.00;99.90;;;;;;5037210;28;20631;-76
2021/06/19 06:14:30;;;;;;;10.73;9.67;;;24.10;99.90;;;;;;5040400;28;20766;-82
2021/06/19 06:16:56;;;;;;;8.67;7.50;;;24.30;99.90;;;;;;5039814;28;20432;-78
2021/06/19 06:19:23;;;;;;;9.13;8.33;;;24.30;99.90;;;;;;5035521;28;20644;-77
2021/06/19 06:21:48;;;;;;;11.67;7.77;;;24.40;99.90;;;;;;5023729;28;20271;-77
2021/06/19 06:24:14;;;;;;;8.40;7.50;;;24.40;99.90;;;;;;5023277;28;20955;-75
2021/06/19 06:26:40;;;;;;;7.77;7.07;;;24.60;99.90;;;;;;5038796;28;20194;-74
2021/06/19 06:29:05;;;;;;;8.93;8.13;;;24.60;99.90;;;;;;5035562;28;20179;-75
2021/06/19 06:31:35;;;;;;;7.90;7.10;;;24.70;99.90;;;;;;5040667;28;20261;-78
2021/06/19 06:34:00;;;;;;;8.40;7.70;;;24.80;99.90;;;;;;5033939;28;20191;-77
2021/06/19 06:36:26;;;;;;;7.83;7.13;;;24.80;99.90;;;;;;5042790;28;20414;-77
2021/06/19 06:38:52;;;;;;;7.50;6.90;;;24.80;99.90;;;;;;5045028;28;20199;-77
2021/06/19 06:41:17;;;;;;;7.97;7.00;;;24.80;99.90;;;;;;5039657;28;20186;-77
2021/06/19 06:43:43;;;;;;;8.67;7.87;;;25.00;99.90;;;;;;5042489;28;20271;-76
2021/06/19 06:46:08;;;;;;;7.07;6.37;;;24.90;99.90;;;;;;5040855;28;20185;-77
2021/06/19 06:48:34;;;;;;;7.20;6.57;;;25.00;99.90;;;;;;5032740;28;20187;-78
2021/06/19 06:51:00;;;;;;;7.70;7.07;;;25.00;99.90;;;;;;5035681;28;20196;-77
2021/06/19 06:53:25;;;;;;;8.43;6.73;;;25.00;99.90;;;;;;5034084;28;20217;-76
2021/06/19 06:55:51;;;;;;;7.40;6.70;;;25.20;99.90;;;;;;5042835;28;20690;-76
2021/06/19 06:58:17;;;;;;;8.07;7.30;;;25.20;99.90;;;;;;5039693;28;20189;-78
2021/06/19 07:00:42;;;;;;;7.03;6.40;;;25.20;99.90;;;;;;5044323;28;20182;-75
2021/06/19 07:03:08;;;;;;;7.00;6.40;;;25.20;99.90;;;;;;5043764;28;20245;-76
2021/06/19 07:05:33;;;;;;;6.93;6.27;;;25.40;99.90;;;;;;5038746;28;20187;-77
2021/06/19 07:07:59;;;;;;;7.60;7.00;;;25.30;99.90;;;;;;5042643;28;20186;-77
2021/06/19 07:10:25;;;;;;;7.77;6.97;;;25.40;99.90;;;;;;5030226;28;20639;-77
2021/06/19 07:12:50;;;;;;;7.27;6.50;;;25.40;99.90;;;;;;5038911;28;20214;-75
2021/06/19 07:15:17;;;;;;;7.83;7.00;;;25.60;99.90;;;;;;5040910;28;20568;-76
2021/06/19 07:17:44;;;;;;;9.33;7.17;;;25.50;99.90;;;;;;5045118;28;20647;-76
2021/06/19 07:20:11;;;;;;;9.77;7.10;;;25.50;99.90;;;;;;5033924;28;20898;-76
2021/06/19 07:22:36;;;;;;;9.50;7.23;;;25.60;99.90;;;;;;5021825;28;20469;-77
2021/06/19 07:25:04;;;;;;;7.27;6.57;;;25.80;99.90;;;;;;5042742;28;20493;-77
2021/06/19 07:27:30;;;;;;;8.20;6.17;;;25.80;99.90;;;;;;5036489;28;20187;-76
2021/06/19 07:29:56;;;;;;;7.20;6.00;;;25.80;99.90;;;;;;5038866;28;20846;-76
2021/06/19 07:32:22;;;;;;;6.07;5.57;;;25.80;99.90;;;;;;5038195;28;20289;-77
2021/06/19 07:34:48;;;;;;;7.50;5.67;;;25.80;99.90;;;;;;5029225;28;20801;-76
2021/06/19 07:37:13;;;;;;;5.80;5.30;;;25.80;99.90;;;;;;5038253;28;20277;-76
2021/06/19 07:39:39;;;;;;;5.30;4.80;;;25.90;99.90;;;;;;5041195;28;20191;-76
2021/06/19 07:42:05;;;;;;;6.87;6.20;;;25.90;99.90;;;;;;5030198;28;20207;-76
2021/06/19 07:44:31;;;;;;;6.40;5.80;;;26.00;99.90;;;;;;5036161;28;20213;-76
2021/06/19 07:47:02;;;;;;;5.73;5.20;;;26.10;99.90;;;;;;5034116;28;20191;-77
2021/06/19 07:49:28;;;;;;;6.27;5.63;;;26.30;99.90;;;;;;5017651;28;20990;-77
2021/06/19 07:51:54;;;;;;;7.13;5.60;;;26.30;99.90;;;;;;5037577;28;20438;-77
2021/06/19 07:54:20;;;;;;;5.73;5.17;;;26.40;99.90;;;;;;5038630;28;20438;-75
2021/06/19 07:56:47;;;;;;;11.33;6.60;;;26.40;99.90;;;;;;5040833;28;20515;-76
2021/06/19 07:59:13;;;;;;;5.13;4.70;;;26.30;99.90;;;;;;5026404;28;20229;-77
2021/06/19 08:01:39;;;;;;;9.40;4.40;;;26.40;99.90;;;;;;5042560;28;20426;-77
2021/06/19 08:04:05;;;;;;;6.67;4.40;;;26.60;99.90;;;;;;5037516;28;20464;-76
2021/06/19 08:06:30;;;;;;;5.73;5.20;;;26.70;99.90;;;;;;5026159;28;20528;-77
2021/06/19 08:08:56;;;;;;;4.67;4.27;;;26.80;99.90;;;;;;5036932;28;20179;-77
2021/06/19 08:11:22;;;;;;;7.33;4.77;;;26.90;99.90;;;;;;5030350;28;20179;-75
2021/06/19 08:13:49;;;;;;;4.20;3.90;;;27.00;99.90;;;;;;5039969;28;20195;-77
2021/06/19 08:16:18;;;;;;;4.83;4.50;;;26.90;99.90;;;;;;5036444;28;20449;-76
2021/06/19 08:18:46;;;;;;;4.90;4.50;;;27.00;99.90;;;;;;5041552;28;20426;-76
2021/06/19 08:21:13;;;;;;;7.30;4.50;;;27.00;99.90;;;;;;5038026;28;20537;-76
2021/06/19 08:23:39;;;;;;;4.93;4.20;;;27.10;99.90;;;;;;5027153;28;20898;-75
2021/06/19 08:26:04;;;;;;;5.27;4.40;;;27.10;99.90;;;;;;5035661;28;20415;-77
2021/06/19 08:28:33;;;;;;;4.40;4.10;;;27.10;99.90;;;;;;5034753;28;20286;-76
2021/06/19 08:30:58;;;;;;;6.00;3.90;;;27.10;99.90;;;;;;5032661;28;20194;-76
2021/06/19 08:33:24;;;;;;;4.40;4.00;;;27.00;99.90;;;;;;5030779;28;20441;-77
2021/06/19 08:35:50;;;;;;;5.03;4.47;;;27.10;99.90;;;;;;5034254;28;20186;-78
2021/06/19 08:38:15;;;;;;;4.80;4.40;;;27.20;99.90;;;;;;5033270;28;20220;-76
2021/06/19 08:40:41;;;;;;;4.10;3.80;;;27.30;99.90;;;;;;5028525;28;20658;-76
2021/06/19 08:43:07;;;;;;;4.23;3.83;;;27.40;99.90;;;;;;5039015;28;20194;-76
2021/06/19 08:45:33;;;;;;;7.23;3.90;;;27.40;99.90;;;;;;5040253;28;20225;-77
2021/06/19 08:48:00;;;;;;;4.03;3.63;;;27.40;99.90;;;;;;5027767;28;20190;-77
2021/06/19 08:50:27;;;;;;;4.00;3.67;;;27.50;99.90;;;;;;5035790;28;20555;-76
2021/06/19 08:52:53;;;;;;;4.50;4.10;;;27.50;99.90;;;;;;5038726;28;20456;-77
2021/06/19 08:55:19;;;;;;;4.77;4.20;;;27.50;99.90;;;;;;5035021;28;20440;-77
2021/06/19 08:57:45;;;;;;;3.90;3.50;;;27.50;99.90;;;;;;5039822;28;20202;-76
2021/06/19 09:00:12;;;;;;;4.97;3.90;;;27.60;99.90;;;;;;5035867;28;20386;-77
2021/06/19 09:02:38;;;;;;;4.40;4.07;;;27.70;99.90;;;;;;5031466;28;20482;-75
2021/06/19 09:05:08;;;;;;;4.30;3.70;;;27.60;99.90;;;;;;5039081;28;20546;-76
2021/06/19 09:07:34;;;;;;;3.90;3.60;;;27.60;99.90;;;;;;5036600;28;20195;-76
2021/06/19 09:10:24;;;;;;;4.77;3.87;;;27.70;99.90;;;;;;5037466;28;20435;-76
2021/06/19 09:12:53;;;;;;;3.70;3.40;;;27.60;99.90;;;;;;5035579;28;20443;-75
2021/06/19 09:15:19;;;;;;;5.67;3.60;;;27.60;99.90;;;;;;5034952;28;20466;-75
2021/06/19 09:18:09;;;;;;;4.37;3.97;;;27.60;99.90;;;;;;5041191;28;20428;-76
2021/06/19 09:20:48;;;;;;;4.90;3.97;;;27.70;99.90;;;;;;5031702;28;20281;-76
2021/06/19 09:23:14;;;;;;;4.23;3.83;;;27.90;99.90;;;;;;5024193;28;20842;-76
2021/06/19 09:25:40;;;;;;;3.93;3.63;;;28.00;99.90;;;;;;5038052;28;20461;-76
2021/06/19 09:28:07;;;;;;;5.27;3.90;;;28.20;99.90;;;;;;5040221;28;20569;-76
2021/06/19 09:30:34;;;;;;;4.70;3.90;;;28.20;99.90;;;;;;5043867;28;20418;-77
2021/06/19 09:33:07;;;;;;;6.03;4.23;;;28.20;99.90;;;;;;5039063;28;21083;-76
2021/06/19 09:35:35;;;;;;;5.73;3.60;;;28.30;99.90;;;;;;5024388;28;20664;-75
2021/06/19 09:38:19;;;;;;;3.67;3.20;;;28.20;99.90;;;;;;5036854;28;20419;-75
2021/06/19 09:40:49;;;;;;;4.30;3.90;;;28.10;99.90;;;;;;5040971;28;20416;-75
2021/06/19 09:43:28;;;;;;;5.67;3.90;;;28.20;99.90;;;;;;5040852;28;20524;-74
2021/06/19 09:46:10;;;;;;;6.07;3.70;;;28.30;99.90;;;;;;5050791;28;20421;-75
2021/06/19 09:48:38;;;;;;;4.37;3.97;;;28.40;99.90;;;;;;5053222;28;20453;-75
2021/06/19 09:51:13;;;;;;;6.53;3.90;;;28.40;99.90;;;;;;5055573;28;20932;-75
2021/06/19 09:53:40;;;;;;;4.97;3.93;;;28.40;99.90;;;;;;5040534;28;20442;-75
2021/06/19 09:56:11;;;;;;;5.00;4.43;;;28.30;99.90;;;;;;5053923;28;20480;-76
2021/06/19 09:58:39;;;;;;;5.83;3.83;;;28.20;99.90;;;;;;5036457;28;20430;-75
2021/06/19 10:01:05;;;;;;;5.03;3.33;;;28.40;99.90;;;;;;5056557;28;20432;-75
2021/06/19 10:03:49;;;;;;;7.43;4.17;;;28.40;99.90;;;;;;5057302;28;20497;-76
2021/06/19 10:06:15;;;;;;;5.07;4.03;;;28.50;99.90;;;;;;5049869;28;20203;-76
2021/06/19 10:08:44;;;;;;;4.70;4.30;;;28.50;99.90;;;;;;5044071;28;20428;-75
2021/06/19 10:11:10;;;;;;;7.73;4.60;;;28.50;99.90;;;;;;5038443;28;20537;-76
2021/06/19 10:13:36;;;;;;;4.10;3.80;;;28.50;99.90;;;;;;5043380;28;20449;-76
2021/06/19 10:16:03;;;;;;;5.93;4.20;;;28.60;99.90;;;;;;5039599;28;20424;-76
2021/06/19 10:18:30;;;;;;;4.70;4.20;;;28.80;99.90;;;;;;5046063;28;20266;-76
2021/06/19 10:20:56;;;;;;;5.10;4.60;;;29.00;99.90;;;;;;5039491;28;20425;-76
2021/06/19 10:23:22;;;;;;;8.00;4.40;;;29.10;99.90;;;;;;5030208;28;20460;-75
2021/06/19 10:25:48;;;;;;;5.73;4.77;;;29.10;99.90;;;;;;5040523;28;20431;-75
2021/06/19 10:28:16;;;;;;;7.70;5.07;;;29.10;99.90;;;;;;5032502;28;20215;-74
2021/06/19 10:30:42;;;;;;;5.50;4.60;;;29.20;99.90;;;;;;5038744;28;20528;-75
2021/06/19 10:33:31;;;;;;;6.20;4.83;;;29.30;99.90;;;;;;5039904;28;20437;-74
2021/06/19 10:36:01;;;;;;;6.43;4.53;;;29.50;99.90;;;;;;5039379;28;20433;-75
2021/06/19 10:38:27;;;;;;;5.80;5.00;;;29.50;99.90;;;;;;5038851;28;20417;-76
2021/06/19 10:40:59;;;;;;;10.17;5.20;;;29.60;99.90;;;;;;5042128;28;20424;-75
2021/06/19 10:43:26;;;;;;;6.30;4.47;;;29.60;99.90;;;;;;5040688;28;20252;-74
2021/06/19 10:45:58;;;;;;;5.93;5.50;;;29.40;99.90;;;;;;5042331;28;20516;-75
2021/06/19 10:48:32;;;;;;;6.10;5.00;;;29.50;99.90;;;;;;5038281;28;20425;-74
2021/06/19 10:51:19;;;;;;;5.10;4.43;;;29.50;99.90;;;;;;5042272;28;20421;-75
2021/06/19 10:54:06;;;;;;;5.40;4.97;;;29.40;99.90;;;;;;5037622;28;20797;-74
2021/06/19 10:56:55;;;;;;;5.43;4.90;;;29.50;99.90;;;;;;5031982;28;20477;-76
2021/06/19 10:59:25;;;;;;;6.33;5.23;;;29.60;99.90;;;;;;5040184;28;20420;-75
2021/06/19 11:01:52;;;;;;;9.10;5.17;;;29.80;99.90;;;;;;5042228;28;20449;-74
2021/06/19 11:04:47;;;;;;;5.60;4.70;;;29.80;99.90;;;;;;5040637;28;20457;-76
2021/06/19 11:07:18;;;;;;;6.37;4.80;;;29.90;99.90;;;;;;5018075;28;20478;-75
2021/06/19 11:09:48;;;;;;;7.83;5.50;;;30.10;99.90;;;;;;5039011;28;20424;-75
2021/06/19 11:12:26;;;;;;;6.93;5.67;;;30.20;99.90;;;;;;5036365;28;20469;-75
2021/06/19 11:14:55;;;;;;;7.40;5.40;;;30.30;99.90;;;;;;5038979;28;20433;-76
2021/06/19 11:17:20;;;;;;;6.20;5.50;;;30.30;99.90;;;;;;5038228;28;20943;-76
2021/06/19 11:19:54;;;;;;;5.73;5.17;;;30.30;99.90;;;;;;5038750;28;21013;-75
2021/06/19 11:22:37;;;;;;;6.70;5.93;;;30.30;99.90;;;;;;5029482;28;20629;-76
2021/06/19 11:25:41;;;;;;;6.20;5.70;;;30.30;99.90;;;;;;5039797;28;20469;-76
2021/06/19 11:28:11;;;;;;;5.20;4.70;;;30.50;99.90;;;;;;5033817;28;20491;-76
2021/06/19 11:30:36;;;;;;;8.03;5.63;;;30.70;99.90;;;;;;5039697;28;20434;-76
2021/06/19 11:33:20;;;;;;;5.90;4.77;;;30.80;99.90;;;;;;5035809;28;20962;-76
2021/06/19 11:35:53;;;;;;;7.20;5.20;;;31.00;99.90;;;;;;5020437;28;20190;-75
2021/06/19 11:38:20;;;;;;;5.90;5.30;;;31.20;99.90;;;;;;5038039;28;20492;-74
2021/06/19 11:40:47;;;;;;;6.90;5.40;;;31.60;99.90;;;;;;5051604;28;20421;-75
2021/06/19 11:43:14;;;;;;;6.77;5.40;;;31.80;99.90;;;;;;5042265;28;20457;-77
2021/06/19 11:45:42;;;;;;;7.53;5.23;;;32.10;99.90;;;;;;5054407;28;20475;-78
2021/06/19 11:48:15;;;;;;;6.17;5.13;;;32.40;99.60;;;;;;5039325;28;20493;-77
2021/06/19 11:50:43;;;;;;;6.17;5.20;;;32.60;99.30;;;;;;5053523;28;20462;-76
2021/06/19 11:53:31;;;;;;;5.97;5.40;;;32.40;98.40;;;;;;5046937;28;20450;-76
2021/06/19 11:56:18;;;;;;;6.50;5.10;;;32.50;98.20;;;;;;5052333;28;20406;-76
2021/06/19 11:58:45;;;;;;;5.30;4.70;;;32.50;97.80;;;;;;5041388;28;20420;-75
2021/06/19 12:01:12;;;;;;;5.87;5.37;;;32.70;96.90;;;;;;5053073;28;20451;-76
2021/06/19 12:03:38;;;;;;;5.60;5.00;;;32.80;96.70;;;;;;5048227;28;20789;-76
2021/06/19 12:06:05;;;;;;;5.77;5.20;;;33.10;96.20;;;;;;5055415;28;20471;-76
2021/06/19 12:08:32;;;;;;;6.57;5.40;;;33.50;97.40;;;;;;5057995;28;20421;-76
2021/06/19 12:10:58;;;;;;;6.33;4.57;;;33.90;94.50;;;;;;5050934;28;21011;-76
2021/06/19 12:13:38;;;;;;;5.40;5.00;;;33.90;92.90;;;;;;5058250;28;20440;-75
2021/06/19 12:16:07;;;;;;;5.57;5.10;;;34.40;92.60;;;;;;5032204;28;20418;-76
2021/06/19 12:18:33;;;;;;;5.57;5.03;;;34.70;92.30;;;;;;5043564;28;20214;-77
2021/06/19 12:21:09;;;;;;;6.80;5.65;;;35.00;93.50;;;;;;5036864;28;20200;-76
2021/06/19 12:23:43;;;;;;;4.57;4.18;;;35.90;91.90;;;;;;5025122;28;20255;-76
2021/06/19 12:26:09;;;;;;;5.90;5.00;;;36.30;86.50;;;;;;5035660;28;20182;-74
2021/06/19 12:28:36;;;;;;;7.18;5.20;;;36.80;83.10;;;;;;5038300;28;20188;-76
2021/06/19 12:31:04;;;;;;;5.30;4.50;;;37.40;83.50;;;;;;5037120;28;20217;-77
2021/06/19 12:33:31;;;;;;;7.35;4.40;;;37.90;81.50;;;;;;5039573;28;20754;-76
2021/06/19 12:35:59;;;;;;;4.88;4.32;;;37.90;77.20;;;;;;5036496;28;20192;-76
2021/06/19 12:38:25;;;;;;;6.60;4.70;;;37.80;73.40;;;;;;5036313;28;20170;-74
2021/06/19 12:40:52;;;;;;;5.30;4.90;;;38.00;74.10;;;;;;5039064;28;20194;-75
2021/06/19 12:43:17;;;;;;;5.05;4.55;;;37.70;74.80;;;;;;5037912;28;20737;-76
2021/06/19 12:45:45;;;;;;;4.65;4.22;;;37.30;74.00;;;;;;5038168;28;20292;-75